sensor_id;sensor_type;location;lat;lon;timestamp;pressure;altitude;pressure_sealevel;temperature;humidity
56737;BME280;42618;51.226;4.910;2022-09-02T00:03:50;49429.97;;;-146.94;45.88
56737;BME280;42618;51.226;4.910;2022-09-02T00:06:17;49418.00;;;-146.94;46.04
56737;BME280;42618;51.226;4.910;2022-09-02T00:08:44;49422.00;;;-146.94;46.46
56737;BME280;42618;51.226;4.910;2022-09-02T00:11:17;49424.00;;;-146.94;46.28
56737;BME280;42618;51.226;4.910;2022-09-02T00:13:46;49437.94;;;-146.94;46.66
56737;BME280;42618;51.226;4.910;2022-09-02T00:16:13;49416.03;;;-146.94;46.80
56737;BME280;42618;51.226;4.910;2022-09-02T00:18:40;49427.97;;;-146.94;46.96
56737;BME280;42618;51.226;4.910;2022-09-02T00:21:13;49418.00;;;-146.94;46.90
56737;BME280;42618;51.226;4.910;2022-09-02T00:23:41;49416.03;;;-146.94;47.22
56737;BME280;42618;51.226;4.910;2022-09-02T00:26:09;49431.97;;;-146.94;47.39
56737;BME280;42618;51.226;4.910;2022-09-02T00:28:36;49431.97;;;-146.94;47.59
56737;BME280;42618;51.226;4.910;2022-09-02T00:31:03;49404.06;;;-146.94;47.83
56737;BME280;42618;51.226;4.910;2022-09-02T00:33:30;49416.03;;;-146.94;47.94
56737;BME280;42618;51.226;4.910;2022-09-02T00:36:02;49410.03;;;-146.94;48.09
56737;BME280;42618;51.226;4.910;2022-09-02T00:38:30;49429.97;;;-146.94;48.51
56737;BME280;42618;51.226;4.910;2022-09-02T00:41:04;49451.91;;;-146.94;48.74
56737;BME280;42618;51.226;4.910;2022-09-02T00:43:48;49437.94;;;-146.94;48.95
56737;BME280;42618;51.226;4.910;2022-09-02T00:46:17;49416.03;;;-146.94;49.11
56737;BME280;42618;51.226;4.910;2022-09-02T00:48:52;49435.97;;;-146.94;49.23
56737;BME280;42618;51.226;4.910;2022-09-02T00:51:22;49435.97;;;-146.94;49.78
56737;BME280;42618;51.226;4.910;2022-09-02T00:53:49;49426.00;;;-146.94;49.79
56737;BME280;42618;51.226;4.910;2022-09-02T00:56:22;49414.03;;;-146.94;49.96
56737;BME280;42618;51.226;4.910;2022-09-02T00:58:51;49420.00;;;-146.94;50.39
56737;BME280;42618;51.226;4.910;2022-09-02T01:01:19;49418.00;;;-146.94;50.51
56737;BME280;42618;51.226;4.910;2022-09-02T01:03:49;49437.94;;;-146.94;50.76
56737;BME280;42618;51.226;4.910;2022-09-02T01:06:17;49467.84;;;-146.94;50.87
56737;BME280;42618;51.226;4.910;2022-09-02T01:08:54;49418.00;;;-146.94;50.72
56737;BME280;42618;51.226;4.910;2022-09-02T01:11:28;49429.97;;;-146.94;51.10
56737;BME280;42618;51.226;4.910;2022-09-02T01:13:57;49431.97;;;-146.94;51.12
56737;BME280;42618;51.226;4.910;2022-09-02T01:16:29;49435.97;;;-146.94;51.23
56737;BME280;42618;51.226;4.910;2022-09-02T01:18:59;49459.88;;;-146.94;51.50
56737;BME280;42618;51.226;4.910;2022-09-02T01:21:27;49422.00;;;-146.94;52.00
56737;BME280;42618;51.226;4.910;2022-09-02T01:23:54;49435.97;;;-146.94;51.85
56737;BME280;42618;51.226;4.910;2022-09-02T01:26:21;49461.88;;;-146.94;52.05
56737;BME280;42618;51.226;4.910;2022-09-02T01:28:50;49424.00;;;-146.94;52.37
56737;BME280;42618;51.226;4.910;2022-09-02T01:31:17;49443.94;;;-146.94;52.37
56737;BME280;42618;51.226;4.910;2022-09-02T01:33:44;49431.97;;;-146.94;52.45
56737;BME280;42618;51.226;4.910;2022-09-02T01:36:11;49439.94;;;-146.94;52.78
56737;BME280;42618;51.226;4.910;2022-09-02T01:38:38;49443.94;;;-146.94;52.79
56737;BME280;42618;51.226;4.910;2022-09-02T01:41:05;49475.81;;;-146.94;53.02
56737;BME280;42618;51.226;4.910;2022-09-02T01:43:32;49439.94;;;-146.94;53.43
56737;BME280;42618;51.226;4.910;2022-09-02T01:46:00;49453.91;;;-146.94;53.55
56737;BME280;42618;51.226;4.910;2022-09-02T01:48:29;49435.97;;;-146.94;54.12
56737;BME280;42618;51.226;4.910;2022-09-02T01:50:59;49455.88;;;-146.94;54.19
56737;BME280;42618;51.226;4.910;2022-09-02T01:53:28;49439.94;;;-146.94;54.24
56737;BME280;42618;51.226;4.910;2022-09-02T01:55:56;49439.94;;;-146.94;54.25
56737;BME280;42618;51.226;4.910;2022-09-02T01:58:23;49412.03;;;-146.94;54.40
56737;BME280;42618;51.226;4.910;2022-09-02T02:00:50;49461.88;;;-146.94;54.42
56737;BME280;42618;51.226;4.910;2022-09-02T02:03:18;49459.88;;;-146.94;54.78
56737;BME280;42618;51.226;4.910;2022-09-02T02:05:45;49431.97;;;-146.94;54.85
56737;BME280;42618;51.226;4.910;2022-09-02T02:08:15;49427.97;;;-146.94;54.96
56737;BME280;42618;51.226;4.910;2022-09-02T02:10:42;49435.97;;;-146.94;55.34
56737;BME280;42618;51.226;4.910;2022-09-02T02:13:11;49459.88;;;-146.94;55.67
56737;BME280;42618;51.226;4.910;2022-09-02T02:15:41;49412.03;;;-146.94;55.75
56737;BME280;42618;51.226;4.910;2022-09-02T02:18:09;49455.88;;;-146.94;55.90
56737;BME280;42618;51.226;4.910;2022-09-02T02:20:37;49467.84;;;-146.94;55.52
56737;BME280;42618;51.226;4.910;2022-09-02T02:23:05;49455.88;;;-146.94;55.18
56737;BME280;42618;51.226;4.910;2022-09-02T02:25:32;49473.84;;;-146.94;55.73
56737;BME280;42618;51.226;4.910;2022-09-02T02:27:59;49451.91;;;-146.94;56.37
56737;BME280;42618;51.226;4.910;2022-09-02T02:30:28;49437.94;;;-146.94;56.22
56737;BME280;42618;51.226;4.910;2022-09-02T02:32:56;49467.84;;;-146.94;56.06
56737;BME280;42618;51.226;4.910;2022-09-02T02:35:23;49475.81;;;-146.94;56.84
56737;BME280;42618;51.226;4.910;2022-09-02T02:37:51;49469.84;;;-146.94;56.82
56737;BME280;42618;51.226;4.910;2022-09-02T02:40:20;49461.88;;;-146.94;57.07
56737;BME280;42618;51.226;4.910;2022-09-02T02:42:48;49463.88;;;-146.94;56.76
56737;BME280;42618;51.226;4.910;2022-09-02T02:45:15;49461.88;;;-146.94;56.94
56737;BME280;42618;51.226;4.910;2022-09-02T02:47:43;49429.97;;;-146.94;57.19
56737;BME280;42618;51.226;4.910;2022-09-02T02:50:16;49439.94;;;-146.94;57.49
56737;BME280;42618;51.226;4.910;2022-09-02T02:52:45;49437.94;;;-146.94;57.50
56737;BME280;42618;51.226;4.910;2022-09-02T02:55:14;49445.94;;;-146.94;57.51
56737;BME280;42618;51.226;4.910;2022-09-02T02:57:41;49463.88;;;-146.94;57.98
56737;BME280;42618;51.226;4.910;2022-09-02T03:02:36;49447.91;;;-146.94;58.13
56737;BME280;42618;51.226;4.910;2022-09-02T03:05:05;49475.81;;;-146.94;57.83
56737;BME280;42618;51.226;4.910;2022-09-02T03:07:33;49461.88;;;-146.94;58.52
56737;BME280;42618;51.226;4.910;2022-09-02T03:10:05;49439.94;;;-146.94;57.90
56737;BME280;42618;51.226;4.910;2022-09-02T03:12:37;49453.91;;;-146.94;58.09
56737;BME280;42618;51.226;4.910;2022-09-02T03:15:07;49424.00;;;-146.94;58.37
56737;BME280;42618;51.226;4.910;2022-09-02T03:17:34;49455.88;;;-146.94;58.51
56737;BME280;42618;51.226;4.910;2022-09-02T03:20:01;49439.94;;;-146.94;58.46
56737;BME280;42618;51.226;4.910;2022-09-02T03:22:31;49437.94;;;-146.94;58.43
56737;BME280;42618;51.226;4.910;2022-09-02T03:24:58;49487.78;;;-146.94;58.77
56737;BME280;42618;51.226;4.910;2022-09-02T03:27:25;49455.88;;;-146.94;58.78
56737;BME280;42618;51.226;4.910;2022-09-02T03:29:51;49463.88;;;-146.94;58.69
56737;BME280;42618;51.226;4.910;2022-09-02T03:32:18;49475.81;;;-146.94;58.88
56737;BME280;42618;51.226;4.910;2022-09-02T03:34:45;49479.81;;;-146.94;59.15
56737;BME280;42618;51.226;4.910;2022-09-02T03:37:12;49475.81;;;-146.94;59.23
56737;BME280;42618;51.226;4.910;2022-09-02T03:39:39;49485.78;;;-146.94;59.27
56737;BME280;42618;51.226;4.910;2022-09-02T03:42:07;49429.97;;;-146.94;59.53
56737;BME280;42618;51.226;4.910;2022-09-02T03:44:43;49439.94;;;-146.94;59.37
56737;BME280;42618;51.226;4.910;2022-09-02T03:47:10;49445.94;;;-146.94;59.27
56737;BME280;42618;51.226;4.910;2022-09-02T03:49:38;49445.94;;;-146.94;59.10
56737;BME280;42618;51.226;4.910;2022-09-02T03:52:10;49463.88;;;-146.94;59.28
56737;BME280;42618;51.226;4.910;2022-09-02T03:54:37;49475.81;;;-146.94;59.36
56737;BME280;42618;51.226;4.910;2022-09-02T03:57:04;49501.75;;;-146.94;59.36
56737;BME280;42618;51.226;4.910;2022-09-02T03:59:31;49475.81;;;-146.94;59.23
56737;BME280;42618;51.226;4.910;2022-09-02T04:02:00;49467.84;;;-146.94;59.48
56737;BME280;42618;51.226;4.910;2022-09-02T04:04:29;49479.81;;;-146.94;59.69
56737;BME280;42618;51.226;4.910;2022-09-02T04:06:57;49465.84;;;-146.94;59.48
56737;BME280;42618;51.226;4.910;2022-09-02T04:09:24;49463.88;;;-146.94;59.82
56737;BME280;42618;51.226;4.910;2022-09-02T04:11:52;49463.88;;;-146.94;59.58
56737;BME280;42618;51.226;4.910;2022-09-02T04:14:19;49517.69;;;-146.94;59.69
56737;BME280;42618;51.226;4.910;2022-09-02T04:16:46;49477.81;;;-146.94;59.63
56737;BME280;42618;51.226;4.910;2022-09-02T04:19:12;49447.91;;;-146.94;59.60
56737;BME280;42618;51.226;4.910;2022-09-02T04:21:40;49483.81;;;-146.94;59.69
56737;BME280;42618;51.226;4.910;2022-09-02T04:24:09;49439.94;;;-146.94;59.74
56737;BME280;42618;51.226;4.910;2022-09-02T04:26:38;49475.81;;;-146.94;59.32
56737;BME280;42618;51.226;4.910;2022-09-02T04:29:12;49481.81;;;-146.94;59.66
56737;BME280;42618;51.226;4.910;2022-09-02T04:31:40;49491.78;;;-146.94;59.58
56737;BME280;42618;51.226;4.910;2022-09-02T04:34:07;49416.03;;;-146.94;59.61
56737;BME280;42618;51.226;4.910;2022-09-02T04:36:34;49455.88;;;-146.94;59.56
56737;BME280;42618;51.226;4.910;2022-09-02T04:39:06;49471.84;;;-146.94;58.92
56737;BME280;42618;51.226;4.910;2022-09-02T04:41:36;49459.88;;;-146.94;59.26
56737;BME280;42618;51.226;4.910;2022-09-02T04:44:07;49439.94;;;-146.94;59.25
56737;BME280;42618;51.226;4.910;2022-09-02T04:46:37;49479.81;;;-146.94;58.95
56737;BME280;42618;51.226;4.910;2022-09-02T04:49:08;49479.81;;;-146.94;58.80
56737;BME280;42618;51.226;4.910;2022-09-02T04:51:37;49437.94;;;-146.94;58.91
56737;BME280;42618;51.226;4.910;2022-09-02T04:54:05;49473.84;;;-146.94;58.83
56737;BME280;42618;51.226;4.910;2022-09-02T04:56:35;49459.88;;;-146.94;58.75
56737;BME280;42618;51.226;4.910;2022-09-02T04:59:04;49479.81;;;-146.94;58.80
56737;BME280;42618;51.226;4.910;2022-09-02T05:01:33;49457.88;;;-146.94;58.75
56737;BME280;42618;51.226;4.910;2022-09-02T05:04:12;49449.91;;;-146.94;58.53
56737;BME280;42618;51.226;4.910;2022-09-02T05:06:44;49441.94;;;-146.94;59.14
56737;BME280;42618;51.226;4.910;2022-09-02T05:09:17;49449.91;;;-146.94;59.18
56737;BME280;42618;51.226;4.910;2022-09-02T05:11:50;49437.94;;;-146.94;58.94
56737;BME280;42618;51.226;4.910;2022-09-02T05:14:21;49471.84;;;-146.94;59.08
56737;BME280;42618;51.226;4.910;2022-09-02T05:16:50;49455.88;;;-146.94;59.05
56737;BME280;42618;51.226;4.910;2022-09-02T05:19:21;49485.78;;;-146.94;58.92
56737;BME280;42618;51.226;4.910;2022-09-02T05:21:50;49475.81;;;-146.94;58.79
56737;BME280;42618;51.226;4.910;2022-09-02T05:24:25;49487.78;;;-146.94;58.88
56737;BME280;42618;51.226;4.910;2022-09-02T05:26:55;49473.84;;;-146.94;59.04
56737;BME280;42618;51.226;4.910;2022-09-02T05:29:24;49453.91;;;-146.94;59.12
56737;BME280;42618;51.226;4.910;2022-09-02T05:31:53;49443.94;;;-146.94;59.35
56737;BME280;42618;51.226;4.910;2022-09-02T05:34:22;49469.84;;;-146.94;59.09
56737;BME280;42618;51.226;4.910;2022-09-02T05:36:51;49459.88;;;-146.94;59.05
56737;BME280;42618;51.226;4.910;2022-09-02T05:39:18;49465.84;;;-146.94;59.11
56737;BME280;42618;51.226;4.910;2022-09-02T05:41:46;49459.88;;;-146.94;59.65
56737;BME280;42618;51.226;4.910;2022-09-02T05:44:14;49485.78;;;-146.94;59.17
56737;BME280;42618;51.226;4.910;2022-09-02T05:46:42;49475.81;;;-146.94;59.19
56737;BME280;42618;51.226;4.910;2022-09-02T05:49:14;49481.81;;;-146.94;59.00
56737;BME280;42618;51.226;4.910;2022-09-02T05:51:55;49463.88;;;-146.94;59.01
56737;BME280;42618;51.226;4.910;2022-09-02T05:54:31;49495.75;;;-146.94;59.04
56737;BME280;42618;51.226;4.910;2022-09-02T05:57:05;49445.94;;;-146.94;59.17
56737;BME280;42618;51.226;4.910;2022-09-02T05:59:38;49463.88;;;-146.94;59.16
56737;BME280;42618;51.226;4.910;2022-09-02T06:02:13;49471.84;;;-146.94;59.43
56737;BME280;42618;51.226;4.910;2022-09-02T06:04:44;49449.91;;;-146.94;59.43
56737;BME280;42618;51.226;4.910;2022-09-02T06:07:13;49467.84;;;-146.94;59.42
56737;BME280;42618;51.226;4.910;2022-09-02T06:09:43;49467.84;;;-146.94;59.41
56737;BME280;42618;51.226;4.910;2022-09-02T06:12:12;49467.84;;;-146.94;59.62
56737;BME280;42618;51.226;4.910;2022-09-02T06:14:40;49491.78;;;-146.94;59.38
56737;BME280;42618;51.226;4.910;2022-09-02T06:17:09;49493.75;;;-146.94;59.02
56737;BME280;42618;51.226;4.910;2022-09-02T06:19:46;49455.88;;;-146.94;58.94
56737;BME280;42618;51.226;4.910;2022-09-02T06:22:20;49465.84;;;-146.94;58.86
56737;BME280;42618;51.226;4.910;2022-09-02T06:24:47;49477.81;;;-146.94;58.81
56737;BME280;42618;51.226;4.910;2022-09-02T06:27:19;49483.81;;;-146.94;58.96
56737;BME280;42618;51.226;4.910;2022-09-02T06:29:49;49461.88;;;-146.94;58.58
56737;BME280;42618;51.226;4.910;2022-09-02T06:32:18;49453.91;;;-146.94;58.39
56737;BME280;42618;51.226;4.910;2022-09-02T06:34:47;49455.88;;;-146.94;58.38
56737;BME280;42618;51.226;4.910;2022-09-02T06:37:14;49481.81;;;-146.94;58.14
56737;BME280;42618;51.226;4.910;2022-09-02T06:39:42;49422.00;;;-146.94;58.13
56737;BME280;42618;51.226;4.910;2022-09-02T06:42:15;49457.88;;;-146.94;58.42
56737;BME280;42618;51.226;4.910;2022-09-02T06:45:05;49463.88;;;-146.94;58.56
56737;BME280;42618;51.226;4.910;2022-09-02T06:47:32;49463.88;;;-146.94;58.08
56737;BME280;42618;51.226;4.910;2022-09-02T06:49:59;49449.91;;;-146.94;57.95
56737;BME280;42618;51.226;4.910;2022-09-02T06:52:27;49445.94;;;-146.94;57.85
56737;BME280;42618;51.226;4.910;2022-09-02T06:54:53;49427.97;;;-146.94;57.80
56737;BME280;42618;51.226;4.910;2022-09-02T06:57:21;49455.88;;;-146.94;58.00
56737;BME280;42618;51.226;4.910;2022-09-02T07:00:00;49445.94;;;-146.94;57.92
56737;BME280;42618;51.226;4.910;2022-09-02T07:02:31;49455.88;;;-146.94;57.60
56737;BME280;42618;51.226;4.910;2022-09-02T07:04:58;49463.88;;;-146.94;56.97
56737;BME280;42618;51.226;4.910;2022-09-02T07:07:42;49467.84;;;-146.94;56.40
56737;BME280;42618;51.226;4.910;2022-09-02T07:10:13;49455.88;;;-146.94;56.83
56737;BME280;42618;51.226;4.910;2022-09-02T07:12:45;49437.94;;;-146.94;56.11
56737;BME280;42618;51.226;4.910;2022-09-02T07:15:15;49455.88;;;-146.94;55.57
56737;BME280;42618;51.226;4.910;2022-09-02T07:17:42;49451.91;;;-146.94;55.11
56737;BME280;42618;51.226;4.910;2022-09-02T07:20:14;49426.00;;;-146.94;55.00
56737;BME280;42618;51.226;4.910;2022-09-02T07:22:46;49459.88;;;-146.94;54.25
56737;BME280;42618;51.226;4.910;2022-09-02T07:25:16;49459.88;;;-146.94;53.83
56737;BME280;42618;51.226;4.910;2022-09-02T07:27:43;49408.06;;;-146.94;53.89
56737;BME280;42618;51.226;4.910;2022-09-02T07:30:11;49422.00;;;-146.94;53.20
56737;BME280;42618;51.226;4.910;2022-09-02T07:32:41;49431.97;;;-146.94;52.30
56737;BME280;42618;51.226;4.910;2022-09-02T07:35:08;49455.88;;;-146.94;51.72
56737;BME280;42618;51.226;4.910;2022-09-02T07:37:36;49433.97;;;-146.94;51.59
56737;BME280;42618;51.226;4.910;2022-09-02T07:40:07;49451.91;;;-146.94;51.18
56737;BME280;42618;51.226;4.910;2022-09-02T07:42:36;49396.09;;;-146.94;51.44
56737;BME280;42618;51.226;4.910;2022-09-02T07:45:04;49408.06;;;-146.94;50.96
56737;BME280;42618;51.226;4.910;2022-09-02T07:47:33;49396.09;;;-146.94;50.82
56737;BME280;42618;51.226;4.910;2022-09-02T07:50:04;49408.06;;;-146.94;50.13
56737;BME280;42618;51.226;4.910;2022-09-02T07:52:55;49422.00;;;-146.94;49.86
56737;BME280;42618;51.226;4.910;2022-09-02T07:55:25;49412.03;;;-146.94;49.00
56737;BME280;42618;51.226;4.910;2022-09-02T07:57:52;49427.97;;;-146.94;48.68
56737;BME280;42618;51.226;4.910;2022-09-02T08:00:23;49412.03;;;-146.94;48.70
56737;BME280;42618;51.226;4.910;2022-09-02T08:02:57;49435.97;;;-146.94;48.22
56737;BME280;42618;51.226;4.910;2022-09-02T08:05:30;49410.03;;;-146.94;47.49
56737;BME280;42618;51.226;4.910;2022-09-02T08:07:58;49384.13;;;-146.94;46.81
56737;BME280;42618;51.226;4.910;2022-09-02T08:10:26;49410.03;;;-146.94;46.60
56737;BME280;42618;51.226;4.910;2022-09-02T08:12:56;49398.09;;;-146.94;46.22
56737;BME280;42618;51.226;4.910;2022-09-02T08:15:23;49400.06;;;-146.94;45.82
56737;BME280;42618;51.226;4.910;2022-09-02T08:17:51;49396.09;;;-146.94;45.58
56737;BME280;42618;51.226;4.910;2022-09-02T08:20:18;49424.00;;;-146.94;45.28
56737;BME280;42618;51.226;4.910;2022-09-02T08:22:45;49378.16;;;-146.94;44.32
56737;BME280;42618;51.226;4.910;2022-09-02T08:25:26;49366.19;;;-146.94;44.11
56737;BME280;42618;51.226;4.910;2022-09-02T08:27:53;49418.00;;;-146.94;43.01
56737;BME280;42618;51.226;4.910;2022-09-02T08:30:21;49416.03;;;-146.94;43.40
56737;BME280;42618;51.226;4.910;2022-09-02T08:32:48;49390.09;;;-146.94;43.08
56737;BME280;42618;51.226;4.910;2022-09-02T08:35:15;49398.09;;;-146.94;43.13
56737;BME280;42618;51.226;4.910;2022-09-02T08:37:42;49372.16;;;-146.94;43.59
56737;BME280;42618;51.226;4.910;2022-09-02T08:40:21;49384.13;;;-146.94;43.21
56737;BME280;42618;51.226;4.910;2022-09-02T08:42:55;49358.22;;;-146.94;43.08
56737;BME280;42618;51.226;4.910;2022-09-02T08:48:01;49398.09;;;-146.94;42.63
56737;BME280;42618;51.226;4.910;2022-09-02T08:50:31;49384.13;;;-146.94;42.32
56737;BME280;42618;51.226;4.910;2022-09-02T08:53:26;49386.13;;;-146.94;42.10
56737;BME280;42618;51.226;4.910;2022-09-02T08:55:57;49362.19;;;-146.94;41.78
56737;BME280;42618;51.226;4.910;2022-09-02T08:58:28;49372.16;;;-146.94;42.21
56737;BME280;42618;51.226;4.910;2022-09-02T09:01:08;49400.06;;;-146.94;42.01
56737;BME280;42618;51.226;4.910;2022-09-02T09:06:24;49406.06;;;-146.94;42.05
56737;BME280;42618;51.226;4.910;2022-09-02T09:09:06;49364.19;;;-146.94;42.07
56737;BME280;42618;51.226;4.910;2022-09-02T09:20:30;49382.13;;;-146.94;41.61
56737;BME280;42618;51.226;4.910;2022-09-02T09:22:59;49366.19;;;-146.94;41.52
56737;BME280;42618;51.226;4.910;2022-09-02T09:25:28;49364.19;;;-146.94;41.81
56737;BME280;42618;51.226;4.910;2022-09-02T09:27:58;49372.16;;;-146.94;41.68
56737;BME280;42618;51.226;4.910;2022-09-02T09:30:27;49364.19;;;-146.94;41.26
56737;BME280;42618;51.226;4.910;2022-09-02T09:32:56;49384.13;;;-146.94;39.95
56737;BME280;42618;51.226;4.910;2022-09-02T09:35:26;49374.16;;;-146.94;39.87
56737;BME280;42618;51.226;4.910;2022-09-02T09:37:54;49380.13;;;-146.94;39.30
56737;BME280;42618;51.226;4.910;2022-09-02T09:40:29;49352.22;;;-146.94;39.39
56737;BME280;42618;51.226;4.910;2022-09-02T09:45:43;49380.13;;;-146.94;38.70
56737;BME280;42618;51.226;4.910;2022-09-02T09:48:26;49344.25;;;-146.94;38.25
56737;BME280;42618;51.226;4.910;2022-09-02T09:53:30;49332.31;;;-146.94;36.70
56737;BME280;42618;51.226;4.910;2022-09-02T10:01:28;49342.28;;;-146.94;36.86
56737;BME280;42618;51.226;4.910;2022-09-02T10:03:57;49328.31;;;-146.94;37.11
56737;BME280;42618;51.226;4.910;2022-09-02T10:09:04;49344.25;;;-146.94;36.30
56737;BME280;42618;51.226;4.910;2022-09-02T10:11:37;49312.38;;;-146.94;36.00
56737;BME280;42618;51.226;4.910;2022-09-02T10:14:05;49322.34;;;-146.94;36.43
56737;BME280;42618;51.226;4.910;2022-09-02T10:16:48;49332.31;;;-146.94;35.31
56737;BME280;42618;51.226;4.910;2022-09-02T10:19:25;49344.25;;;-146.94;35.42
56737;BME280;42618;51.226;4.910;2022-09-02T10:27:36;49380.13;;;-146.94;35.66
56737;BME280;42618;51.226;4.910;2022-09-02T10:30:21;49356.22;;;-146.94;34.85
56737;BME280;42618;51.226;4.910;2022-09-02T10:33:15;49312.38;;;-146.94;34.13
56737;BME280;42618;51.226;4.910;2022-09-02T10:35:49;49320.34;;;-146.94;34.28
56737;BME280;42618;51.226;4.910;2022-09-02T10:38:27;49334.28;;;-146.94;33.96
56737;BME280;42618;51.226;4.910;2022-09-02T10:47:00;49310.38;;;-146.94;33.90
56737;BME280;42618;51.226;4.910;2022-09-02T10:52:36;49306.38;;;-146.94;33.23
56737;BME280;42618;51.226;4.910;2022-09-02T10:58:15;49284.47;;;-146.94;32.55
56737;BME280;42618;51.226;4.910;2022-09-02T11:00:47;49288.44;;;-146.94;32.44
56737;BME280;42618;51.226;4.910;2022-09-02T11:03:26;49298.41;;;-146.94;32.69
56737;BME280;42618;51.226;4.910;2022-09-02T11:06:43;49320.34;;;-146.94;32.98
56737;BME280;42618;51.226;4.910;2022-09-02T11:09:27;49288.44;;;-146.94;32.46
56737;BME280;42618;51.226;4.910;2022-09-02T11:12:15;49286.44;;;-146.94;32.24
56737;BME280;42618;51.226;4.910;2022-09-02T11:17:32;49328.31;;;-146.94;32.02
56737;BME280;42618;51.226;4.910;2022-09-02T11:20:25;49280.47;;;-146.94;32.13
56737;BME280;42618;51.226;4.910;2022-09-02T11:23:30;49298.41;;;-146.94;31.40
56737;BME280;42618;51.226;4.910;2022-09-02T11:26:10;49290.44;;;-146.94;30.48
56737;BME280;42618;51.226;4.910;2022-09-02T11:31:41;49280.47;;;-146.94;29.91
56737;BME280;42618;51.226;4.910;2022-09-02T11:37:03;49260.53;;;-146.94;29.24
56737;BME280;42618;51.226;4.910;2022-09-02T11:39:37;49266.53;;;-146.94;28.84
56737;BME280;42618;51.226;4.910;2022-09-02T11:45:09;49286.44;;;-146.94;28.47
56737;BME280;42618;51.226;4.910;2022-09-02T11:53:17;49262.53;;;-146.94;28.23
56737;BME280;42618;51.226;4.910;2022-09-02T11:55:55;49278.47;;;-146.94;28.47
56737;BME280;42618;51.226;4.910;2022-09-02T12:04:05;49276.50;;;-146.94;27.96
56737;BME280;42618;51.226;4.910;2022-09-02T12:09:45;49288.44;;;-146.94;28.29
56737;BME280;42618;51.226;4.910;2022-09-02T12:15:16;49248.59;;;-146.94;28.05
56737;BME280;42618;51.226;4.910;2022-09-02T12:23:06;49272.50;;;-146.94;28.04
56737;BME280;42618;51.226;4.910;2022-09-02T12:25:35;49272.50;;;-146.94;27.99
56737;BME280;42618;51.226;4.910;2022-09-02T12:28:21;49260.53;;;-146.94;28.01
56737;BME280;42618;51.226;4.910;2022-09-02T12:33:35;49248.59;;;-146.94;28.17
56737;BME280;42618;51.226;4.910;2022-09-02T12:36:04;49276.50;;;-146.94;28.01
56737;BME280;42618;51.226;4.910;2022-09-02T12:38:37;49232.63;;;-146.94;27.51
56737;BME280;42618;51.226;4.910;2022-09-02T12:43:54;49262.53;;;-146.94;27.58
56737;BME280;42618;51.226;4.910;2022-09-02T12:52:02;49268.50;;;-146.94;26.12
56737;BME280;42618;51.226;4.910;2022-09-02T12:57:02;49256.56;;;-146.94;26.28
56737;BME280;42618;51.226;4.910;2022-09-02T12:59:32;49260.53;;;-146.94;26.72
56737;BME280;42618;51.226;4.910;2022-09-02T13:05:05;49256.56;;;-146.94;26.89
56737;BME280;42618;51.226;4.910;2022-09-02T13:07:48;49272.50;;;-146.94;26.83
56737;BME280;42618;51.226;4.910;2022-09-02T13:23:43;49212.69;;;-146.94;26.14
56737;BME280;42618;51.226;4.910;2022-09-02T13:26:31;49224.66;;;-146.94;25.82
56737;BME280;42618;51.226;4.910;2022-09-02T13:29:26;49260.53;;;-146.94;25.49
56737;BME280;42618;51.226;4.910;2022-09-02T13:32:23;49178.81;;;-146.94;25.85
56737;BME280;42618;51.226;4.910;2022-09-02T13:34:52;49272.50;;;-146.94;26.31
56737;BME280;42618;51.226;4.910;2022-09-02T13:39:56;49216.69;;;-146.94;26.09
56737;BME280;42618;51.226;4.910;2022-09-02T13:42:26;49172.84;;;-146.94;25.75
56737;BME280;42618;51.226;4.910;2022-09-02T13:45:14;49214.69;;;-146.94;26.04
56737;BME280;42618;51.226;4.910;2022-09-02T13:47:44;49212.69;;;-146.94;26.25
56737;BME280;42618;51.226;4.910;2022-09-02T13:50:14;49268.50;;;-146.94;26.34
56737;BME280;42618;51.226;4.910;2022-09-02T13:52:43;49212.69;;;-146.94;25.42
56737;BME280;42618;51.226;4.910;2022-09-02T13:55:32;49204.72;;;-146.94;25.46
56737;BME280;42618;51.226;4.910;2022-09-02T13:58:31;49192.78;;;-146.94;25.02
56737;BME280;42618;51.226;4.910;2022-09-02T14:01:49;49162.88;;;-146.94;24.52
56737;BME280;42618;51.226;4.910;2022-09-02T14:04:11;49156.88;;;-146.94;24.43
56737;BME280;42618;51.226;4.910;2022-09-02T14:06:43;49194.75;;;-146.94;24.11
56737;BME280;42618;51.226;4.910;2022-09-02T14:09:23;49192.78;;;-146.94;23.86
56737;BME280;42618;51.226;4.910;2022-09-02T14:11:51;49162.88;;;-146.94;23.73
56737;BME280;42618;51.226;4.910;2022-09-02T14:14:22;49212.69;;;-146.94;23.81
56737;BME280;42618;51.226;4.910;2022-09-02T14:16:49;49174.81;;;-146.94;23.62
56737;BME280;42618;51.226;4.910;2022-09-02T14:21:52;49236.63;;;-146.94;24.91
56737;BME280;42618;51.226;4.910;2022-09-02T14:24:21;49196.75;;;-146.94;24.40
56737;BME280;42618;51.226;4.910;2022-09-02T14:26:51;49156.88;;;-146.94;24.01
56737;BME280;42618;51.226;4.910;2022-09-02T14:29:19;49130.97;;;-146.94;23.63
56737;BME280;42618;51.226;4.910;2022-09-02T14:32:02;49130.97;;;-146.94;22.98
56737;BME280;42618;51.226;4.910;2022-09-02T14:34:36;49132.97;;;-146.94;22.99
56737;BME280;42618;51.226;4.910;2022-09-02T14:37:17;49176.81;;;-146.94;22.69
56737;BME280;42618;51.226;4.910;2022-09-02T14:40:05;49148.91;;;-146.94;23.17
56737;BME280;42618;51.226;4.910;2022-09-02T14:42:49;49148.91;;;-146.94;23.06
56737;BME280;42618;51.226;4.910;2022-09-02T14:45:30;49146.91;;;-146.94;23.25
56737;BME280;42618;51.226;4.910;2022-09-02T14:48:23;49176.81;;;-146.94;22.99
56737;BME280;42618;51.226;4.910;2022-09-02T14:50:49;49172.84;;;-146.94;22.50
56737;BME280;42618;51.226;4.910;2022-09-02T14:53:28;49166.84;;;-146.94;22.84
56737;BME280;42618;51.226;4.910;2022-09-02T14:55:55;49140.94;;;-146.94;22.60
56737;BME280;42618;51.226;4.910;2022-09-02T14:58:25;49121.00;;;-146.94;22.50
56737;BME280;42618;51.226;4.910;2022-09-02T15:00:57;49111.03;;;-146.94;22.58
56737;BME280;42618;51.226;4.910;2022-09-02T15:03:26;49130.97;;;-146.94;22.41